Time;durP1;ratioP1;P1;durP2;ratioP2;P2;SDS_P1;SDS_P2;PMS_P1;PMS_P2;Temp;Humidity;BMP_temperature;BMP_pressure;BME280_temperature;BME280_humidity;BME280_pressure;Samples;Min_cycle;Max_cycle;Signal;HPM_P1;HPM_P2
2021/07/09 00:01:18;;;;;;;7.70;4.30;;;;;;;17.95;92.83;100291.67;1645202;85;21025;-76
2021/07/09 00:03:44;;;;;;;12.40;4.20;;;;;;;17.91;93.06;100296.30;1682545;84;20990;-76
2021/07/09 00:06:13;;;;;;;10.80;4.37;;;;;;;17.88;93.25;100290.08;1648483;86;21030;-76
2021/07/09 00:08:40;;;;;;;11.93;4.65;;;;;;;17.85;93.10;100296.33;1697802;83;21059;-74
2021/07/09 00:11:06;;;;;;;9.28;4.50;;;;;;;17.81;93.29;100298.98;1697906;83;21072;-75
2021/07/09 00:13:33;;;;;;;14.33;4.10;;;;;;;17.79;93.73;100294.36;1648445;86;20966;-76
2021/07/09 00:15:59;;;;;;;8.00;4.45;;;;;;;17.78;93.73;100294.70;1654599;85;21122;-76
2021/07/09 00:18:26;;;;;;;12.33;4.33;;;;;;;17.76;93.57;100290.07;1656894;86;21517;-76
2021/07/09 00:20:52;;;;;;;8.78;4.35;;;;;;;17.73;93.35;100287.41;1657473;86;21005;-76
2021/07/09 00:23:19;;;;;;;12.73;4.35;;;;;;;17.67;93.42;100287.39;1653008;85;20998;-76
2021/07/09 00:25:45;;;;;;;8.00;3.80;;;;;;;17.63;93.48;100283.66;1655645;86;20991;-77
2021/07/09 00:28:11;;;;;;;13.58;4.20;;;;;;;17.61;93.76;100281.80;1656228;85;21039;-76
2021/07/09 00:30:38;;;;;;;14.40;4.12;;;;;;;17.59;93.74;100286.89;1679358;84;21538;-76
2021/07/09 00:33:05;;;;;;;12.90;4.08;;;;;;;17.54;93.64;100290.47;1685733;84;20955;-77
2021/07/09 00:35:31;;;;;;;9.05;4.30;;;;;;;17.50;93.64;100287.56;1674556;83;20979;-77
2021/07/09 00:37:58;;;;;;;57.67;6.60;;;;;;;17.42;93.54;100280.95;1663703;84;20917;-77
2021/07/09 00:40:26;;;;;;;16.60;4.53;;;;;;;17.36;93.91;100280.13;1659855;84;21183;-76
2021/07/09 00:42:52;;;;;;;76.53;7.35;;;;;;;17.34;94.09;100282.44;1677103;84;21897;-76
2021/07/09 00:45:18;;;;;;;27.17;5.10;;;;;;;17.31;94.07;100278.99;1656585;85;21172;-76
2021/07/09 00:47:47;;;;;;;26.02;4.80;;;;;;;17.28;94.36;100279.67;1603859;87;21027;-77
2021/07/09 00:50:14;;;;;;;14.68;4.97;;;;;;;17.26;94.64;100276.43;1609745;88;21495;-78
2021/07/09 00:52:40;;;;;;;19.37;4.58;;;;;;;17.24;94.59;100278.73;1615552;87;20922;-78
2021/07/09 00:55:07;;;;;;;11.45;4.47;;;;;;;17.22;94.28;100276.88;1623005;87;21744;-78
2021/07/09 00:57:39;;;;;;;9.40;4.62;;;;;;;17.16;94.52;100277.09;1631825;87;21016;-77
2021/07/09 01:00:11;;;;;;;13.00;4.37;;;;;;;17.16;94.48;100279.06;1629088;87;21085;-78
2021/07/09 01:02:38;;;;;;;20.10;5.17;;;;;;;17.12;94.51;100272.57;1614501;87;21100;-76
2021/07/09 01:05:06;;;;;;;6.67;3.92;;;;;;;17.08;94.83;100272.45;1624325;87;21054;-77
2021/07/09 01:07:35;;;;;;;22.35;5.17;;;;;;;17.06;95.06;100269.20;1624235;87;20977;-76
2021/07/09 01:10:03;;;;;;;10.80;4.03;;;;;;;17.03;94.85;100273.23;1604589;87;20979;-75
2021/07/09 01:12:31;;;;;;;8.75;4.47;;;;;;;16.99;95.05;100277.84;1617512;86;20958;-75
2021/07/09 01:14:57;;;;;;;10.53;4.05;;;;;;;16.95;94.91;100276.32;1577393;87;21480;-76
2021/07/09 01:17:25;;;;;;;20.70;4.67;;;;;;;16.92;95.04;100272.03;1624502;87;20968;-76
2021/07/09 01:19:52;;;;;;;13.53;3.95;;;;;;;16.89;94.98;100274.91;1629266;87;22208;-77
2021/07/09 01:22:20;;;;;;;13.62;4.40;;;;;;;16.84;95.11;100273.73;1625789;87;21183;-79
2021/07/09 01:24:48;;;;;;;11.33;4.15;;;;;;;16.82;95.34;100269.10;1604697;87;21029;-77
2021/07/09 01:27:15;;;;;;;9.03;4.05;;;;;;;16.79;95.39;100271.98;1620406;87;21042;-78
2021/07/09 01:29:41;;;;;;;9.58;4.03;;;;;;;16.77;95.24;100267.92;1617067;87;21075;-78
2021/07/09 01:32:07;;;;;;;8.23;4.17;;;;;;;16.73;95.21;100276.71;1615717;87;21034;-78
2021/07/09 01:34:34;;;;;;;9.23;4.03;;;;;;;16.70;95.35;100277.39;1605692;88;21041;-78
2021/07/09 01:37:15;;;;;;;9.58;3.80;;;;;;;16.66;95.14;100271.71;1606879;88;21001;-77
2021/07/09 01:39:44;;;;;;;10.40;3.92;;;;;;;16.63;95.19;100268.77;1624511;87;20989;-79
2021/07/09 01:42:12;;;;;;;8.10;3.83;;;;;;;16.59;95.35;100268.64;1632221;87;21098;-79
2021/07/09 01:44:42;;;;;;;6.22;3.90;;;;;;;16.56;95.52;100262.38;1615088;87;21980;-76
2021/07/09 01:47:08;;;;;;;7.17;3.95;;;;;;;16.56;95.47;100268.50;1605669;87;20985;-77
2021/07/09 01:49:58;;;;;;;7.58;4.65;;;;;;;16.52;95.58;100268.37;1616273;87;21029;-77
2021/07/09 01:52:26;;;;;;;12.30;3.72;;;;;;;16.50;95.59;100269.28;1620610;87;21061;-76
2021/07/09 01:54:54;;;;;;;9.35;3.58;;;;;;;16.45;95.55;100271.67;1607489;88;21473;-77
2021/07/09 01:57:20;;;;;;;8.88;4.25;;;;;;;16.40;95.42;100264.95;1625251;87;21147;-77
2021/07/09 01:59:47;;;;;;;9.05;4.55;;;;;;;16.37;95.49;100261.47;1629896;87;21624;-78
2021/07/09 02:02:13;;;;;;;9.85;4.05;;;;;;;16.36;95.72;100263.19;1621814;87;21188;-79
2021/07/09 02:04:46;;;;;;;5.60;4.00;;;;;;;16.35;95.92;100269.30;1614856;87;21081;-78
2021/07/09 02:07:12;;;;;;;11.08;4.33;;;;;;;16.34;95.92;100263.52;1628439;87;21540;-77
2021/07/09 02:09:44;;;;;;;7.90;4.67;;;;;;;16.31;95.71;100265.58;1621357;87;21558;-77
2021/07/09 02:12:12;;;;;;;9.08;4.25;;;;;;;16.28;95.66;100269.02;1615496;87;20934;-78
2021/07/09 02:14:39;;;;;;;8.63;4.30;;;;;;;16.25;95.79;100268.31;1625895;87;21194;-77
2021/07/09 02:17:12;;;;;;;5.58;4.12;;;;;;;16.23;95.82;100271.98;1619646;87;21068;-77
2021/07/09 02:19:39;;;;;;;10.45;4.58;;;;;;;16.23;96.02;100271.17;1632063;87;21092;-78
2021/07/09 02:22:08;;;;;;;9.78;4.85;;;;;;;16.21;95.94;100272.90;1623633;87;21134;-77
2021/07/09 02:24:35;;;;;;;9.00;5.65;;;;;;;16.16;95.95;100274.51;1616980;87;21071;-76
2021/07/09 02:27:02;;;;;;;14.33;5.03;;;;;;;16.14;96.24;100274.84;1615157;87;21039;-79
2021/07/09 02:29:30;;;;;;;9.88;5.25;;;;;;;16.14;96.45;100276.80;1601474;88;21461;-80
2021/07/09 02:31:59;;;;;;;12.18;7.30;;;;;;;16.14;96.51;100272.64;1610861;88;21033;-79
2021/07/09 02:34:27;;;;;;;17.15;9.40;;;;;;;16.15;96.88;100277.84;1609998;87;21062;-79
2021/07/09 02:36:55;;;;;;;21.97;9.80;;;;;;;16.17;96.93;100273.36;1630197;87;21025;-77
2021/07/09 02:39:24;;;;;;;19.57;10.70;;;;;;;16.17;96.86;100265.05;1606907;87;21505;-78
2021/07/09 02:41:53;;;;;;;17.75;9.40;;;;;;;16.20;96.99;100269.89;1629004;87;21438;-76
2021/07/09 02:44:21;;;;;;;35.65;18.87;;;;;;;16.22;97.08;100262.05;1621153;87;21005;-74
2021/07/09 02:46:50;;;;;;;42.98;23.00;;;;;;;16.24;97.24;100263.92;1617676;87;20978;-75
2021/07/09 02:49:16;;;;;;;28.92;16.93;;;;;;;16.26;97.31;100265.77;1610933;87;21705;-74
2021/07/09 02:51:43;;;;;;;26.75;15.38;;;;;;;16.30;97.50;100268.69;1609630;87;21093;-73
2021/07/09 02:54:09;;;;;;;36.33;20.55;;;;;;;16.33;97.68;100264.67;1615242;87;21564;-73
2021/07/09 02:56:36;;;;;;;40.45;19.62;;;;;;;16.38;97.96;100267.81;1624972;87;20938;-76
2021/07/09 02:59:03;;;;;;;36.25;21.42;;;;;;;16.43;98.21;100262.89;1630335;87;22142;-72
2021/07/09 03:01:31;;;;;;;33.55;19.00;;;;;;;16.49;98.31;100267.08;1621178;87;21116;-73
2021/07/09 03:03:58;;;;;;;36.85;18.60;;;;;;;16.55;98.45;100269.65;1613018;87;20977;-72
2021/07/09 03:06:24;;;;;;;37.20;19.12;;;;;;;16.60;98.46;100268.06;1630777;87;20981;-72
2021/07/09 03:08:52;;;;;;;29.48;16.70;;;;;;;16.67;98.65;100272.52;1621412;87;20951;-74
2021/07/09 03:11:19;;;;;;;24.80;15.55;;;;;;;16.72;98.71;100268.16;1615831;85;21484;-75
2021/07/09 03:13:46;;;;;;;30.88;16.10;;;;;;;16.80;98.90;100270.83;1602703;87;21024;-75
2021/07/09 03:16:13;;;;;;;25.23;15.43;;;;;;;16.87;98.88;100270.86;1613457;87;21039;-79
2021/07/09 03:18:41;;;;;;;25.70;15.10;;;;;;;16.93;98.92;100271.69;1608205;87;21245;-75
2021/07/09 03:21:07;;;;;;;26.07;14.63;;;;;;;17.00;98.95;100265.59;1619005;88;21422;-77
2021/07/09 03:23:33;;;;;;;24.50;14.20;;;;;;;17.07;99.04;100260.30;1620540;86;21506;-72
2021/07/09 03:26:00;;;;;;;21.25;13.35;;;;;;;17.16;99.05;100270.73;1617165;86;21564;-72
2021/07/09 03:28:27;;;;;;;22.37;12.70;;;;;;;17.25;99.20;100269.27;1614513;87;20977;-72
2021/07/09 03:30:54;;;;;;;20.55;12.73;;;;;;;17.33;99.29;100267.75;1609917;87;20974;-75
2021/07/09 03:33:21;;;;;;;25.92;13.00;;;;;;;17.42;99.29;100270.43;1621153;87;20954;-75
2021/07/09 03:35:47;;;;;;;23.65;11.63;;;;;;;17.52;99.35;100269.17;1625887;87;21540;-77
2021/07/09 03:38:16;;;;;;;20.97;11.25;;;;;;;17.62;99.45;100272.89;1622408;87;20998;-76
2021/07/09 03:40:42;;;;;;;17.92;10.18;;;;;;;17.71;99.51;100267.50;1607999;87;21047;-75
2021/07/09 03:43:10;;;;;;;17.07;9.20;;;;;;;17.83;99.52;100260.34;1608948;87;20934;-72
2021/07/09 03:45:36;;;;;;;26.65;8.93;;;;;;;17.93;99.50;100268.17;1624399;87;21558;-70
2021/07/09 03:48:05;;;;;;;23.80;8.03;;;;;;;18.04;99.44;100274.89;1612462;87;21141;-75
2021/07/09 03:50:32;;;;;;;15.90;7.35;;;;;;;18.15;99.33;100269.91;1622848;86;21591;-74
2021/07/09 03:52:59;;;;;;;9.83;5.83;;;;;;;18.30;99.16;100281.47;1604723;88;21018;-74
2021/07/09 03:55:25;;;;;;;14.83;6.55;;;;;;;18.43;97.95;100276.12;1603464;88;21562;-74
2021/07/09 03:57:53;;;;;;;16.10;6.03;;;;;;;18.56;97.15;100277.69;1602119;88;20949;-73
2021/07/09 04:00:20;;;;;;;18.92;7.10;;;;;;;18.70;96.60;100278.14;1615008;87;21762;-74
2021/07/09 04:02:46;;;;;;;14.30;5.28;;;;;;;18.85;95.77;100274.39;1589132;89;21115;-74
2021/07/09 04:05:13;;;;;;;9.95;4.90;;;;;;;18.97;94.98;100274.34;1671599;84;21010;-71
2021/07/09 04:07:40;;;;;;;9.78;5.03;;;;;;;19.11;93.87;100279.70;1675129;85;21466;-73
2021/07/09 04:10:08;;;;;;;12.03;4.65;;;;;;;19.25;92.82;100279.86;1675415;84;21009;-73
2021/07/09 04:12:36;;;;;;;9.33;4.12;;;;;;;19.38;91.73;100277.23;1673467;84;20964;-71
2021/07/09 04:15:06;;;;;;;6.67;3.80;;;;;;;19.51;90.00;100277.97;1675102;84;21115;-72
2021/07/09 04:17:34;;;;;;;8.85;3.67;;;;;;;19.63;88.30;100279.32;1679227;85;20950;-71
2021/07/09 04:20:01;;;;;;;13.20;3.83;;;;;;;19.77;87.79;100286.62;1667465;84;21089;-72
2021/07/09 04:22:28;;;;;;;19.92;4.17;;;;;;;19.92;87.85;100286.39;1618027;87;20962;-72
2021/07/09 04:24:54;;;;;;;11.73;4.00;;;;;;;20.05;87.73;100284.54;1606748;87;21106;-72
2021/07/09 04:27:20;;;;;;;9.85;3.85;;;;;;;20.19;87.56;100288.25;1668099;84;21456;-72
2021/07/09 04:29:48;;;;;;;18.12;4.15;;;;;;;20.31;87.20;100285.33;1628523;86;21077;-72
2021/07/09 04:32:15;;;;;;;25.75;4.95;;;;;;;20.43;85.68;100290.00;1590290;88;21084;-72
2021/07/09 04:34:41;;;;;;;9.40;3.42;;;;;;;20.55;84.38;100282.91;1623322;87;20953;-72
2021/07/09 04:37:10;;;;;;;8.03;2.52;;;;;;;20.69;84.85;100281.02;1603357;87;21561;-72
2021/07/09 04:39:37;;;;;;;7.15;2.83;;;;;;;20.80;80.17;100279.85;1610466;87;20979;-71
2021/07/09 04:42:05;;;;;;;9.35;2.67;;;;;;;20.90;76.97;100280.63;1629713;87;21066;-70
2021/07/09 04:44:33;;;;;;;9.10;2.52;;;;;;;21.02;72.98;100279.09;1638811;86;21511;-72
2021/07/09 04:46:59;;;;;;;8.75;2.42;;;;;;;21.15;72.77;100274.97;1613556;87;21036;-73
2021/07/09 04:49:26;;;;;;;11.90;3.15;;;;;;;21.26;72.78;100281.59;1624500;87;21922;-72
2021/07/09 04:51:53;;;;;;;5.58;2.37;;;;;;;21.38;71.36;100277.80;1631883;87;20920;-76
2021/07/09 04:54:20;;;;;;;18.37;4.33;;;;;;;21.49;70.25;100276.02;1633114;87;20983;-74
2021/07/09 04:56:48;;;;;;;3.55;2.12;;;;;;;21.60;71.43;100279.80;1645384;86;21515;-76
2021/07/09 04:59:15;;;;;;;9.50;3.47;;;;;;;21.71;69.35;100278.00;1642793;86;20904;-73
2021/07/09 05:01:41;;;;;;;5.60;2.30;;;;;;;21.84;70.38;100280.61;1644835;87;21208;-71
2021/07/09 05:04:08;;;;;;;7.78;2.80;;;;;;;21.93;69.93;100283.37;1622554;86;21134;-69
2021/07/09 05:06:35;;;;;;;14.85;7.15;;;;;;;22.02;69.36;100277.52;1600300;88;21082;-71
2021/07/09 05:09:04;;;;;;;5.83;2.40;;;;;;;22.12;69.22;100282.47;1670423;85;21046;-70
2021/07/09 05:11:33;;;;;;;7.53;2.65;;;;;;;22.22;65.94;100282.42;1650202;86;21793;-71
2021/07/09 05:14:00;;;;;;;6.85;2.22;;;;;;;22.33;67.79;100276.41;1588127;87;21159;-69
2021/07/09 05:16:26;;;;;;;8.83;2.60;;;;;;;22.43;65.17;100275.75;1597315;88;20989;-72
2021/07/09 05:18:54;;;;;;;5.12;2.50;;;;;;;22.52;65.16;100276.28;1584544;89;21002;-71
2021/07/09 05:21:21;;;;;;;4.62;2.67;;;;;;;22.60;62.24;100277.96;1588617;89;21012;-72
2021/07/09 05:23:49;;;;;;;9.00;3.70;;;;;;;22.68;61.26;100271.27;1602197;88;20945;-73
2021/07/09 05:26:17;;;;;;;5.78;3.33;;;;;;;22.77;62.54;100275.19;1586872;89;21522;-73
2021/07/09 05:28:43;;;;;;;6.72;2.92;;;;;;;22.84;63.28;100273.11;1582485;89;21038;-73
2021/07/09 05:31:10;;;;;;;9.85;3.08;;;;;;;22.91;63.29;100276.80;1597160;88;21131;-73
2021/07/09 05:33:38;;;;;;;5.45;3.22;;;;;;;22.97;64.44;100284.27;1594809;88;21053;-72
2021/07/09 05:36:04;;;;;;;8.73;2.60;;;;;;;23.03;63.67;100272.94;1589277;89;20966;-73
2021/07/09 05:38:31;;;;;;;7.78;3.33;;;;;;;23.09;63.77;100268.61;1596340;89;21570;-74
2021/07/09 05:40:58;;;;;;;4.90;2.65;;;;;;;23.17;65.34;100266.67;1589583;88;20934;-73
2021/07/09 05:43:24;;;;;;;33.08;8.43;;;;;;;23.26;65.25;100276.38;1595820;89;20976;-73
2021/07/09 05:45:50;;;;;;;8.78;3.30;;;;;;;23.33;66.47;100273.66;1602036;88;21502;-73
2021/07/09 05:48:16;;;;;;;9.20;3.33;;;;;;;23.43;64.64;100276.36;1582635;89;21086;-73
2021/07/09 05:50:44;;;;;;;5.03;2.60;;;;;;;23.53;63.12;100281.30;1593369;89;21445;-73
2021/07/09 05:53:10;;;;;;;12.00;3.50;;;;;;;23.61;60.85;100278.77;1597754;88;20962;-73
2021/07/09 05:55:37;;;;;;;16.80;5.40;;;;;;;23.68;61.67;100280.21;1591331;89;21547;-73
2021/07/09 05:58:03;;;;;;;9.03;3.02;;;;;;;23.77;60.54;100272.88;1607103;89;20998;-74
2021/07/09 06:00:29;;;;;;;9.08;3.15;;;;;;;23.82;56.84;100271.13;1590683;88;21034;-74
2021/07/09 06:02:56;;;;;;;7.58;2.92;;;;;;;23.87;57.04;100267.97;1599504;88;21601;-74
2021/07/09 06:05:22;;;;;;;9.80;3.90;;;;;;;23.91;57.15;100266.00;1584038;88;21102;-74
2021/07/09 06:07:49;;;;;;;6.12;3.72;;;;;;;23.98;57.83;100271.66;1584584;89;21696;-73
2021/07/09 06:10:15;;;;;;;30.25;8.83;;;;;;;24.08;57.98;100267.33;1579971;88;20958;-72
2021/07/09 06:12:42;;;;;;;14.50;5.28;;;;;;;24.18;57.68;100263.80;1597758;87;21096;-73
2021/07/09 06:15:09;;;;;;;10.63;4.10;;;;;;;24.28;57.86;100265.88;1621006;87;21026;-73
2021/07/09 06:17:35;;;;;;;9.85;4.37;;;;;;;24.34;58.19;100267.11;1659774;86;20998;-73
2021/07/09 06:20:05;;;;;;;6.05;2.98;;;;;;;24.44;57.27;100262.77;1664781;86;20961;-73
2021/07/09 06:22:32;;;;;;;8.73;3.33;;;;;;;24.53;58.89;100260.41;1644313;85;21002;-73
2021/07/09 06:24:59;;;;;;;6.65;3.10;;;;;;;24.64;57.60;100266.08;1663622;85;20978;-73
2021/07/09 06:27:25;;;;;;;5.70;2.98;;;;;;;24.72;57.54;100264.92;1663302;86;21616;-73
2021/07/09 06:29:51;;;;;;;6.12;3.35;;;;;;;24.78;56.63;100261.13;1661895;85;20895;-73
2021/07/09 06:32:18;;;;;;;13.50;3.40;;;;;;;24.85;56.40;100258.33;1608358;87;21085;-73
2021/07/09 06:34:45;;;;;;;9.75;3.62;;;;;;;24.91;55.99;100262.36;1613846;88;21697;-73
2021/07/09 06:37:11;;;;;;;6.58;3.08;;;;;;;24.97;55.44;100260.21;1649773;86;21063;-74
2021/07/09 06:39:38;;;;;;;7.08;2.70;;;;;;;25.07;56.85;100260.05;1637511;86;21585;-73
2021/07/09 06:42:04;;;;;;;7.90;2.65;;;;;;;25.18;55.32;100268.51;1665703;84;20957;-73
2021/07/09 06:44:31;;;;;;;9.50;2.50;;;;;;;25.26;54.66;100267.33;1673399;84;21586;-73
2021/07/09 06:46:59;;;;;;;9.38;3.02;;;;;;;25.36;54.08;100263.73;1669133;84;21560;-73
2021/07/09 06:49:26;;;;;;;5.58;2.40;;;;;;;25.42;53.04;100263.52;1669064;84;21020;-74
2021/07/09 06:51:52;;;;;;;4.65;1.72;;;;;;;25.47;51.17;100258.91;1669071;84;21152;-73
2021/07/09 06:54:19;;;;;;;5.12;2.02;;;;;;;25.51;48.14;100254.09;1669090;84;20913;-73
2021/07/09 06:56:46;;;;;;;2.67;1.85;;;;;;;25.60;51.71;100256.52;1673210;84;20989;-73
2021/07/09 06:59:13;;;;;;;8.40;1.75;;;;;;;25.71;49.65;100250.94;1675475;85;20931;-73
2021/07/09 07:01:39;;;;;;;3.83;1.32;;;;;;;25.82;47.62;100258.77;1674964;85;20982;-74
2021/07/09 07:04:07;;;;;;;10.78;2.00;;;;;;;25.91;48.90;100255.77;1675574;85;21130;-73
2021/07/09 07:06:34;;;;;;;3.05;1.60;;;;;;;25.99;48.75;100248.13;1675462;85;20942;-73
2021/07/09 07:09:00;;;;;;;8.45;1.45;;;;;;;26.10;46.84;100249.48;1670222;84;21096;-73
2021/07/09 07:11:26;;;;;;;5.62;1.85;;;;;;;26.16;45.35;100245.86;1669129;84;21603;-73
2021/07/09 07:13:53;;;;;;;34.58;9.70;;;;;;;26.20;46.51;100245.25;1659710;85;20934;-73
2021/07/09 07:16:20;;;;;;;20.82;5.45;;;;;;;26.28;45.57;100247.45;1619851;87;21131;-73
2021/07/09 07:18:46;;;;;;;2.83;1.80;;;;;;;26.36;46.43;100240.63;1662889;86;20954;-73
2021/07/09 07:21:12;;;;;;;8.30;1.90;;;;;;;26.45;45.56;100235.38;1665144;86;21024;-73
2021/07/09 07:23:39;;;;;;;3.00;1.70;;;;;;;26.52;44.37;100231.73;1664863;85;20955;-72
2021/07/09 07:26:05;;;;;;;2.80;1.50;;;;;;;26.59;47.09;100225.45;1667382;84;20980;-69
2021/07/09 07:28:32;;;;;;;4.40;1.60;;;;;;;26.70;46.25;100235.87;1677305;85;21191;-73
2021/07/09 07:30:59;;;;;;;3.05;1.60;;;;;;;26.77;45.23;100233.83;1670491;84;21053;-74
2021/07/09 07:33:27;;;;;;;4.53;1.65;;;;;;;26.83;42.69;100231.39;1670839;84;20969;-74
2021/07/09 07:35:54;;;;;;;2.33;1.60;;;;;;;26.90;43.92;100233.57;1672048;84;21045;-73
2021/07/09 07:38:20;;;;;;;4.30;1.75;;;;;;;26.99;44.78;100226.11;1675357;83;21078;-77
2021/07/09 07:40:46;;;;;;;5.22;1.70;;;;;;;27.12;44.28;100224.43;1628210;86;21028;-73
2021/07/09 07:43:13;;;;;;;2.90;1.75;;;;;;;27.23;40.92;100229.97;1621618;86;21169;-73
2021/07/09 07:45:42;;;;;;;3.50;1.70;;;;;;;27.24;40.83;100231.58;1685640;84;21589;-73
2021/07/09 07:48:08;;;;;;;4.95;1.77;;;;;;;27.28;42.11;100233.16;1641266;84;21116;-73
2021/07/09 07:50:34;;;;;;;2.33;1.47;;;;;;;27.37;42.22;100228.47;1661009;84;21075;-73
2021/07/09 07:53:01;;;;;;;3.30;1.50;;;;;;;27.47;41.74;100226.80;1603535;87;22142;-74
2021/07/09 07:55:27;;;;;;;4.95;1.57;;;;;;;27.58;42.20;100224.09;1640433;85;20930;-70
2021/07/09 07:57:55;;;;;;;9.83;2.40;;;;;;;27.67;41.91;100229.29;1668652;84;21576;-75
2021/07/09 08:00:21;;;;;;;3.77;2.62;;;;;;;27.73;39.24;100225.41;1677473;84;20985;-73
2021/07/09 08:02:48;;;;;;;8.18;3.67;;;;;;;27.73;39.00;100224.00;1649184;86;21006;-75
2021/07/09 08:05:14;;;;;;;5.37;2.12;;;;;;;27.71;39.50;100225.03;1652753;85;21117;-74
2021/07/09 08:07:44;;;;;;;5.42;1.77;;;;;;;27.77;41.16;100217.70;1649516;85;21020;-73
2021/07/09 08:10:10;;;;;;;1.75;1.52;;;;;;;27.88;38.95;100215.58;1669190;84;21209;-74
2021/07/09 08:12:37;;;;;;;7.53;1.52;;;;;;;27.94;39.97;100212.50;1638433;85;21056;-73
2021/07/09 08:15:06;;;;;;;5.85;2.42;;;;;;;28.04;40.02;100214.42;1656371;85;21064;-73
2021/07/09 08:17:34;;;;;;;5.60;1.90;;;;;;;28.12;40.91;100208.90;1608639;88;22109;-74
2021/07/09 08:20:01;;;;;;;4.28;1.42;;;;;;;28.21;40.24;100209.23;1602599;88;20933;-74
2021/07/09 08:22:27;;;;;;;4.80;2.40;;;;;;;28.32;40.01;100200.63;1634297;87;21051;-74
2021/07/09 08:24:54;;;;;;;6.70;1.70;;;;;;;28.49;39.39;100204.47;1627205;87;20963;-74
2021/07/09 08:27:20;;;;;;;4.83;1.62;;;;;;;28.72;38.83;100197.52;1630788;87;21075;-74
2021/07/09 08:29:46;;;;;;;13.00;2.08;;;;;;;28.99;37.92;100195.34;1669895;85;21514;-71
2021/07/09 08:32:13;;;;;;;5.17;1.75;;;;;;;29.18;36.64;100191.23;1674329;84;20902;-73
2021/07/09 08:34:39;;;;;;;7.42;2.52;;;;;;;29.32;38.19;100193.04;1671404;84;21071;-74
2021/07/09 08:37:05;;;;;;;5.58;2.12;;;;;;;29.51;39.53;100195.77;1617448;87;21602;-73
2021/07/09 08:39:33;;;;;;;3.92;1.60;;;;;;;29.73;37.85;100195.60;1615609;87;21146;-73
2021/07/09 08:42:00;;;;;;;6.67;1.75;;;;;;;29.87;34.50;100196.77;1611902;87;22114;-73
2021/07/09 08:44:27;;;;;;;3.72;1.52;;;;;;;29.95;35.07;100200.27;1611190;87;21098;-73
2021/07/09 08:46:56;;;;;;;5.70;1.77;;;;;;;30.02;34.66;100200.17;1641293;87;20989;-73
2021/07/09 08:49:22;;;;;;;2.77;1.42;;;;;;;30.08;35.38;100197.00;1610240;86;21022;-76
2021/07/09 08:51:49;;;;;;;3.52;1.60;;;;;;;30.26;36.42;100193.03;1654893;85;21018;-73
2021/07/09 08:54:17;;;;;;;7.55;2.60;;;;;;;30.47;34.94;100192.61;1646837;85;21144;-73
2021/07/09 08:56:45;;;;;;;5.92;1.52;;;;;;;30.67;36.83;100184.91;1638089;87;20963;-73
2021/07/09 08:59:11;;;;;;;7.28;1.75;;;;;;;30.83;33.48;100182.13;1604386;88;20986;-73
2021/07/09 09:01:50;;;;;;;2.87;1.80;;;;;;;30.83;34.29;100183.55;1639324;86;21525;-75
2021/07/09 09:04:29;;;;;;;6.00;1.80;;;;;;;30.74;32.52;100187.59;1630093;86;20975;-75
2021/07/09 09:07:11;;;;;;;2.83;2.05;;;;;;;30.71;33.14;100182.80;1632797;86;21833;-74
2021/07/09 09:09:40;;;;;;;2.77;1.47;;;;;;;30.92;31.61;100180.73;1617491;86;20957;-75
2021/07/09 09:12:16;;;;;;;5.95;1.50;;;;;;;30.91;32.35;100177.09;1645131;86;21009;-73
2021/07/09 09:14:47;;;;;;;2.60;1.70;;;;;;;31.07;34.41;100184.84;1619147;87;21053;-74
2021/07/09 09:17:30;;;;;;;;;;;;;;;31.18;30.38;100179.13;1606258;87;21584;-73
2021/07/09 09:20:15;;;;;;;5.67;1.72;;;;;;;31.19;32.43;100178.52;1606668;88;21146;-73
2021/07/09 09:22:53;;;;;;;1.80;1.57;;;;;;;31.20;34.60;100180.08;1670909;84;21005;-75
2021/07/09 09:25:25;;;;;;;3.25;1.67;;;;;;;31.35;32.89;100169.19;1677724;84;20910;-74
2021/07/09 09:28:11;;;;;;;8.00;1.98;;;;;;;31.41;35.50;100175.31;1677933;84;20962;-75
2021/07/09 09:30:40;;;;;;;7.47;1.80;;;;;;;31.62;35.12;100170.34;1674503;85;21018;-77
2021/07/09 09:33:10;;;;;;;4.72;1.50;;;;;;;31.81;34.20;100169.45;1667517;84;21141;-73
2021/07/09 09:35:41;;;;;;;2.55;1.60;;;;;;;31.90;34.99;100167.39;1659914;84;21028;-73
2021/07/09 09:38:15;;;;;;;5.20;1.80;;;;;;;32.07;34.30;100164.69;1641973;85;20972;-72
2021/07/09 09:40:43;;;;;;;3.58;1.92;;;;;;;32.15;32.12;100164.05;1616164;87;20987;-72
2021/07/09 09:43:13;;;;;;;4.83;1.42;;;;;;;32.09;33.59;100158.74;1607386;88;21162;-75
2021/07/09 09:45:42;;;;;;;1.62;1.10;;;;;;;32.12;32.45;100159.89;1646912;84;21229;-75
2021/07/09 09:48:12;;;;;;;4.83;1.17;;;;;;;32.09;31.55;100163.63;1645175;85;21092;-73
2021/07/09 09:50:47;;;;;;;4.58;1.40;;;;;;;31.96;31.77;100153.63;1636077;86;21568;-72
2021/07/09 09:53:13;;;;;;;4.37;1.60;;;;;;;31.96;30.73;100155.05;1628769;86;21525;-71
2021/07/09 09:55:40;;;;;;;4.70;1.60;;;;;;;32.01;33.06;100157.97;1625194;87;21069;-71
2021/07/09 09:58:15;;;;;;;2.02;1.47;;;;;;;32.12;31.73;100157.84;1611032;87;21573;-72
2021/07/09 10:00:45;;;;;;;3.52;1.60;;;;;;;32.09;30.31;100149.42;1606492;87;21030;-71
2021/07/09 10:03:11;;;;;;;6.53;1.62;;;;;;;32.00;33.82;100145.81;1616185;87;21057;-75
2021/07/09 10:05:43;;;;;;;2.55;1.27;;;;;;;32.16;32.79;100148.60;1616340;87;21025;-74
2021/07/09 10:08:13;;;;;;;2.52;1.50;;;;;;;32.32;32.06;100148.41;1601943;87;21132;-73
2021/07/09 10:10:41;;;;;;;5.22;1.60;;;;;;;32.44;33.24;100144.15;1611474;88;21512;-74
2021/07/09 10:13:10;;;;;;;4.92;1.35;;;;;;;32.61;31.43;100145.49;1609345;87;20978;-74
2021/07/09 10:15:36;;;;;;;1.72;1.15;;;;;;;32.71;31.58;100136.64;1591730;89;21044;-75
2021/07/09 10:18:02;;;;;;;2.58;1.55;;;;;;;32.81;32.85;100138.39;1655891;86;21127;-75
2021/07/09 10:20:29;;;;;;;4.10;1.52;;;;;;;32.83;30.80;100128.61;1655356;86;21029;-74
2021/07/09 10:22:58;;;;;;;3.85;1.77;;;;;;;32.83;32.28;100130.03;1657353;86;21170;-75
2021/07/09 10:25:25;;;;;;;4.97;1.90;;;;;;;32.84;30.15;100128.16;1612411;86;21551;-74
2021/07/09 10:27:52;;;;;;;3.15;1.22;;;;;;;32.79;32.00;100127.30;1589638;89;21175;-74
2021/07/09 10:30:18;;;;;;;2.55;1.30;;;;;;;32.76;30.23;100121.90;1611451;88;21073;-75
2021/07/09 10:32:48;;;;;;;2.70;1.37;;;;;;;32.62;31.64;100122.30;1585602;90;21634;-75
2021/07/09 10:35:41;;;;;;;4.17;1.70;;;;;;;32.54;32.62;100109.56;1602985;88;21525;-75
2021/07/09 10:38:14;;;;;;;3.08;1.95;;;;;;;32.48;32.02;100110.74;1598008;89;21039;-74
2021/07/09 10:40:42;;;;;;;10.45;2.00;;;;;;;32.57;32.69;100105.81;1606026;88;21685;-74
2021/07/09 10:43:13;;;;;;;5.72;1.57;;;;;;;32.72;33.09;100099.06;1618231;87;22083;-72
2021/07/09 10:45:39;;;;;;;4.75;1.82;;;;;;;32.81;31.98;100115.65;1613281;87;21156;-73
2021/07/09 10:48:11;;;;;;;4.17;2.47;;;;;;;32.81;32.59;100103.48;1610517;88;21183;-70
2021/07/09 10:50:48;;;;;;;2.62;1.52;;;;;;;32.82;31.77;100103.65;1611049;87;21015;-74
2021/07/09 10:53:19;;;;;;;4.87;1.52;;;;;;;32.83;31.93;100105.24;1634287;87;21135;-72
2021/07/09 10:56:08;;;;;;;3.67;2.05;;;;;;;32.86;30.79;100105.76;1626717;86;22623;-70
2021/07/09 10:58:43;;;;;;;4.80;1.50;;;;;;;32.96;31.72;100099.53;1636249;86;21081;-69
2021/07/09 11:01:23;;;;;;;2.22;1.35;;;;;;;33.03;31.98;100096.45;1620035;87;39379;-71
2021/07/09 11:03:57;;;;;;;3.98;1.45;;;;;;;33.11;30.15;100093.55;1625068;87;21111;-71
2021/07/09 11:06:39;;;;;;;5.42;1.70;;;;;;;33.16;31.07;100085.86;1548700;90;21567;-72
2021/07/09 11:09:12;;;;;;;4.22;1.40;;;;;;;33.14;30.05;100086.32;1634643;86;21048;-70
2021/07/09 11:11:48;;;;;;;5.78;1.60;;;;;;;33.05;31.44;100083.38;1647660;86;21595;-70
2021/07/09 11:14:23;;;;;;;3.30;1.30;;;;;;;33.00;32.01;100087.41;1640638;86;21131;-71
2021/07/09 11:17:02;;;;;;;7.65;1.75;;;;;;;32.88;30.31;100084.77;1643983;86;21014;-71
2021/07/09 11:19:33;;;;;;;1.37;1.20;;;;;;;32.77;30.83;100085.73;1645843;86;21152;-70
2021/07/09 11:22:07;;;;;;;2.35;1.50;;;;;;;32.77;30.77;100085.73;1640795;86;21104;-70
2021/07/09 11:24:38;;;;;;;5.45;1.40;;;;;;;32.77;31.22;100083.69;1642988;86;21092;-70
2021/07/09 11:27:06;;;;;;;3.47;1.50;;;;;;;32.88;30.14;100071.19;1642518;86;21140;-71